Priwall — V2OX8 — position and weather

sailwx.info

Track history (hours):
 
Tides and Currents Weather Stations Pressure Air Temp Water Temp Dewpoint Dewpoint Depression Visibility Wind Speed Wind Dir Waves Ship Positions

Priwall

Last reported at 2016-Apr-30 10:29 UTC. Time now 2016-May-01 09:58 UTC.
Position N 49°47' W 003°26'.

Length 88 m; draft 5.7 m.

Type: Ship. MMSI: 304739000.

Date/timePositionNaut miles runAvg speedWind from/ knotsBaromVisibWave heightAir tempDewpointWater temp
2016-Apr-30 10:29N 49°47' W 003°26'8 8.7
2016-Apr-30 09:33N 49°51' W 003°15'9 9.3
2016-Apr-30 08:33N 49°55' W 003°02'10 9.9
2016-Apr-30 07:31N 49°59' W 002°47'95 8.7
2016-Apr-29 20:33N 50°26' W 000°24'9 9.2
2016-Apr-29 19:33N 50°28' W 000°10'10 9.3
2016-Apr-29 18:31N 50°31' E 000°04'8 8.8
2016-Apr-29 17:33N 50°34' E 000°17'8 8.2
2016-Apr-29 16:33N 50°36' E 000°29'32 7.3
2016-Apr-29 12:13N 50°55' E 001°09'6 9.0
2016-Apr-29 11:33N 50°59' E 001°17'10 9.6
2016-Apr-29 10:33N 51°05' E 001°29'9 9.4
2016-Apr-29 09:33N 51°11' E 001°40'8 8.4
2016-Apr-29 08:33N 51°17' E 001°49'7 7.5
2016-Apr-29 07:33N 51°24' E 001°54'7 6.5
2016-Apr-29 06:33N 51°29' E 002°00'167 7.6
2016-Apr-28 08:27N 53°34' E 005°04'8 8.0
2016-Apr-28 07:28N 53°37' E 005°16'8 8.9
2016-Apr-28 06:33N 53°39' E 005°29'9 9.2
2016-Apr-28 05:33N 53°42' E 005°43'9 9.4
2016-Apr-28 04:33N 53°46' E 005°59'10 9.1
2016-Apr-28 03:25N 53°49' E 006°15'7 8.5
2016-Apr-28 02:33N 53°51' E 006°27'8 7.8
2016-Apr-28 01:33N 53°53' E 006°40'7 7.2
2016-Apr-28 00:33N 53°55' E 006°52'7 6.8
2016-Apr-27 23:33N 53°56' E 007°03'7 6.7
2016-Apr-27 22:33N 53°57' E 007°14'7 6.9
2016-Apr-27 21:33N 53°59' E 007°26'8 7.8
2016-Apr-27 20:34N 54°01' E 007°38'8 8.2
2016-Apr-27 19:33N 54°01' E 007°52'9 9.3
2016-Apr-27 18:33N 54°01' E 008°08'10 9.9
2016-Apr-27 17:33N 53°59' E 008°25'10 9.7
2016-Apr-27 16:33N 53°56' E 008°40'7 7.3
2016-Apr-27 15:33N 53°50' E 008°48'6 6.2
2016-Apr-27 14:33N 53°51' E 008°59'6 6.2
2016-Apr-27 13:33N 53°53' E 009°08'2 1.9
2016-Apr-27 12:34N 53°55' E 009°11'8 8.5
2016-Apr-27 11:34N 54°02' E 009°18'7 6.7
2016-Apr-27 10:30N 54°09' E 009°22'13 6.6
2016-Apr-27 08:27N 54°17' E 009°39'7 7.7
2016-Apr-27 07:33N 54°22' E 009°48'7 7.5
2016-Apr-27 06:33N 54°22' E 010°01'4 4.2
2016-Apr-27 05:33N 54°22' E 010°08'2 2.2
2016-Apr-27 04:33N 54°23' E 010°12'9 8.6
2016-Apr-27 03:33N 54°30' E 010°20'9 8.7
2016-Apr-27 02:33N 54°34' E 010°33'9 9.2
2016-Apr-27 01:33N 54°39' E 010°47'7 7.4
2016-Apr-27 00:33N 54°46' E 010°52'7 6.7
2016-Apr-26 23:33N 54°52' E 010°52'6 6.4
2016-Apr-26 22:33N 54°58' E 010°58'7 7.4
2016-Apr-26 21:33N 55°05' E 011°02'7 7.4
2016-Apr-26 20:33N 55°12' E 011°05'7 7.3
2016-Apr-26 19:33N 55°19' E 011°02'  
2016-Apr-21 12:10N 55°22' E 011°03'7 8.8
2016-Apr-21 11:24N 55°15' E 011°05'7 8.9
2016-Apr-21 10:34N 55°08' E 011°04'9 9.4
2016-Apr-21 09:34N 54°58' E 011°00'9 9.3
2016-Apr-21 08:33N 54°50' E 010°53'9 9.4
2016-Apr-21 07:34N 54°41' E 010°53'9 9.3
2016-Apr-21 06:33N 54°35' E 010°40'1010.1
2016-Apr-21 05:32N 54°31' E 010°24'9 9.6
2016-Apr-21 04:33N 54°24' E 010°12'3 3.2
2016-Apr-21 03:34N 54°22' E 010°08'7 7.3
2016-Apr-21 02:34N 54°20' E 009°56'27 6.8
2016-Apr-20 22:33N 54°04' E 009°19'7 7.2
2016-Apr-20 21:33N 53°57' E 009°15'3 3.1
2016-Apr-20 20:34N 53°55' E 009°11'2 2.0
2016-Apr-20 19:34N 53°54' E 009°09'2 2.2
2016-Apr-20 18:33N 53°53' E 009°05'6 6.5
2016-Apr-20 17:33N 53°50' E 008°55'6 5.8
2016-Apr-20 16:34N 53°51' E 008°45'6 5.5
2016-Apr-20 15:33N 53°56' E 008°40'6 6.2
2016-Apr-20 14:33N 53°58' E 008°30'7 7.4
2016-Apr-20 13:33N 53°59' E 008°18'8 8.3
2016-Apr-20 12:33N 53°59' E 008°04'9 9.3
2016-Apr-20 11:33N 53°57' E 007°48'10 9.8
2016-Apr-20 10:33N 53°55' E 007°32'  
Track history (hours):
 
Tides and Currents Weather Stations Pressure Air Temp Water Temp Dewpoint Dewpoint Depression Visibility Wind Speed Wind Dir Waves Ship Positions

Priwall

Last reported at 2016-Apr-30 10:29 UTC. Time now 2016-May-01 09:58 UTC.
Position N 49°47' W 003°26'.

Length 88 m; draft 5.7 m.

Type: Ship. MMSI: 304739000.

Date/timePositionNaut miles runAvg speedWind from/ knotsBaromVisibWave heightAir tempDewpointWater temp
2016-Apr-30 10:29N 49°47' W 003°26'8 8.7
2016-Apr-30 09:33N 49°51' W 003°15'9 9.3
2016-Apr-30 08:33N 49°55' W 003°02'10 9.9
2016-Apr-30 07:31N 49°59' W 002°47'95 8.7
2016-Apr-29 20:33N 50°26' W 000°24'9 9.2
2016-Apr-29 19:33N 50°28' W 000°10'10 9.3
2016-Apr-29 18:31N 50°31' E 000°04'8 8.8
2016-Apr-29 17:33N 50°34' E 000°17'8 8.2
2016-Apr-29 16:33N 50°36' E 000°29'32 7.3
2016-Apr-29 12:13N 50°55' E 001°09'6 9.0
2016-Apr-29 11:33N 50°59' E 001°17'10 9.6
2016-Apr-29 10:33N 51°05' E 001°29'9 9.4
2016-Apr-29 09:33N 51°11' E 001°40'8 8.4
2016-Apr-29 08:33N 51°17' E 001°49'7 7.5
2016-Apr-29 07:33N 51°24' E 001°54'7 6.5
2016-Apr-29 06:33N 51°29' E 002°00'167 7.6
2016-Apr-28 08:27N 53°34' E 005°04'8 8.0
2016-Apr-28 07:28N 53°37' E 005°16'8 8.9
2016-Apr-28 06:33N 53°39' E 005°29'9 9.2
2016-Apr-28 05:33N 53°42' E 005°43'9 9.4
2016-Apr-28 04:33N 53°46' E 005°59'10 9.1
2016-Apr-28 03:25N 53°49' E 006°15'7 8.5
2016-Apr-28 02:33N 53°51' E 006°27'8 7.8
2016-Apr-28 01:33N 53°53' E 006°40'7 7.2
2016-Apr-28 00:33N 53°55' E 006°52'7 6.8
2016-Apr-27 23:33N 53°56' E 007°03'7 6.7
2016-Apr-27 22:33N 53°57' E 007°14'7 6.9
2016-Apr-27 21:33N 53°59' E 007°26'8 7.8
2016-Apr-27 20:34N 54°01' E 007°38'8 8.2
2016-Apr-27 19:33N 54°01' E 007°52'9 9.3
2016-Apr-27 18:33N 54°01' E 008°08'10 9.9
2016-Apr-27 17:33N 53°59' E 008°25'10 9.7
2016-Apr-27 16:33N 53°56' E 008°40'7 7.3
2016-Apr-27 15:33N 53°50' E 008°48'6 6.2
2016-Apr-27 14:33N 53°51' E 008°59'6 6.2
2016-Apr-27 13:33N 53°53' E 009°08'2 1.9
2016-Apr-27 12:34N 53°55' E 009°11'8 8.5
2016-Apr-27 11:34N 54°02' E 009°18'7 6.7
2016-Apr-27 10:30N 54°09' E 009°22'13 6.6
2016-Apr-27 08:27N 54°17' E 009°39'7 7.7
2016-Apr-27 07:33N 54°22' E 009°48'7 7.5
2016-Apr-27 06:33N 54°22' E 010°01'4 4.2
2016-Apr-27 05:33N 54°22' E 010°08'2 2.2
2016-Apr-27 04:33N 54°23' E 010°12'9 8.6
2016-Apr-27 03:33N 54°30' E 010°20'9 8.7
2016-Apr-27 02:33N 54°34' E 010°33'9 9.2
2016-Apr-27 01:33N 54°39' E 010°47'7 7.4
2016-Apr-27 00:33N 54°46' E 010°52'7 6.7
2016-Apr-26 23:33N 54°52' E 010°52'6 6.4
2016-Apr-26 22:33N 54°58' E 010°58'7 7.4
2016-Apr-26 21:33N 55°05' E 011°02'7 7.4
2016-Apr-26 20:33N 55°12' E 011°05'7 7.3
2016-Apr-26 19:33N 55°19' E 011°02'  
2016-Apr-21 12:10N 55°22' E 011°03'7 8.8
2016-Apr-21 11:24N 55°15' E 011°05'7 8.9
2016-Apr-21 10:34N 55°08' E 011°04'9 9.4
2016-Apr-21 09:34N 54°58' E 011°00'9 9.3
2016-Apr-21 08:33N 54°50' E 010°53'9 9.4
2016-Apr-21 07:34N 54°41' E 010°53'9 9.3
2016-Apr-21 06:33N 54°35' E 010°40'1010.1
2016-Apr-21 05:32N 54°31' E 010°24'9 9.6
2016-Apr-21 04:33N 54°24' E 010°12'3 3.2
2016-Apr-21 03:34N 54°22' E 010°08'7 7.3
2016-Apr-21 02:34N 54°20' E 009°56'27 6.8
2016-Apr-20 22:33N 54°04' E 009°19'7 7.2
2016-Apr-20 21:33N 53°57' E 009°15'3 3.1
2016-Apr-20 20:34N 53°55' E 009°11'2 2.0
2016-Apr-20 19:34N 53°54' E 009°09'2 2.2
2016-Apr-20 18:33N 53°53' E 009°05'6 6.5
2016-Apr-20 17:33N 53°50' E 008°55'6 5.8
2016-Apr-20 16:34N 53°51' E 008°45'6 5.5
2016-Apr-20 15:33N 53°56' E 008°40'6 6.2
2016-Apr-20 14:33N 53°58' E 008°30'7 7.4
2016-Apr-20 13:33N 53°59' E 008°18'8 8.3
2016-Apr-20 12:33N 53°59' E 008°04'9 9.3
2016-Apr-20 11:33N 53°57' E 007°48'10 9.8
2016-Apr-20 10:33N 53°55' E 007°32'  

Dump ship's entire track history